Salavat, Russia
Current Conditions -  °F | °C
As of 6:00 PM on Thursday 27 Nov 2014 (Local Time) from UWUU Reporting Station
Light Snow Light Snow  
Wind Chill: 21°   Ceiling: 1600
Heat Index: 21°   Visibility: 6mi
Dew Point: 18°   Wind: 0mph
Humidity: 86%   Direction: NA
Pressure: 30.53"   Gusts: NA
Location:  53.37°N, 55.92°E
Report Text: UWUU 271300Z 00000MPS 9999 -SN OVC016 M06/M08 Q1034 82420546NOSIG RMK QFE764/1018
Loading
Personal Weather Stations






























Interactive Weather Map New forecast layout! Learn more

10-Day Weather Forecast

Advertisements
Track Severe Weather on mobile